createdAt,value
2017-11-17T00:01:09.643Z,102665.88
2017-11-17T00:03:39.456Z,102670.37
2017-11-17T00:06:08.554Z,102674.02
2017-11-17T00:08:37.609Z,102675.00
2017-11-17T00:11:05.910Z,102675.11
2017-11-17T00:13:34.231Z,102683.48
2017-11-17T00:16:02.584Z,102683.91
2017-11-17T00:18:30.880Z,102691.33
2017-11-17T00:20:59.194Z,102693.50
2017-11-17T00:23:28.263Z,102687.69
2017-11-17T00:25:57.338Z,102698.63
2017-11-17T00:28:25.646Z,102693.29
2017-11-17T00:30:53.994Z,102693.98
2017-11-17T00:33:22.290Z,102703.38
2017-11-17T00:35:50.608Z,102697.98
2017-11-17T00:38:19.671Z,102702.83
2017-11-17T00:40:48.004Z,102706.68
2017-11-17T00:43:17.078Z,102705.34
2017-11-17T00:45:45.410Z,102700.78
2017-11-17T00:48:13.707Z,102705.77
2017-11-17T00:50:42.100Z,102713.34
2017-11-17T00:53:10.411Z,102713.27
2017-11-17T00:55:38.713Z,102710.04
2017-11-17T00:58:07.029Z,102717.69
2017-11-17T01:00:35.329Z,102719.23
2017-11-17T01:03:03.666Z,102721.41
2017-11-17T01:05:31.979Z,102715.58
2017-11-17T01:08:00.305Z,102721.82
2017-11-17T01:10:29.375Z,102733.67
2017-11-17T01:12:58.454Z,102731.77
2017-11-17T01:15:26.761Z,102733.59
2017-11-17T01:17:55.853Z,102739.63
2017-11-17T01:20:24.176Z,102743.94
2017-11-17T01:22:53.237Z,102743.31
2017-11-17T01:25:21.567Z,102741.28
2017-11-17T01:27:50.656Z,102744.64
2017-11-17T01:30:19.715Z,102749.06
2017-11-17T01:32:48.095Z,102755.44
2017-11-17T01:35:16.399Z,102751.86
2017-11-17T01:37:45.490Z,102753.48
2017-11-17T01:40:14.566Z,102755.58
2017-11-17T01:42:42.864Z,102757.47
2017-11-17T01:45:11.162Z,102756.52
2017-11-17T01:47:39.477Z,102762.91
2017-11-17T01:50:07.809Z,102762.55
2017-11-17T01:52:36.881Z,102757.44
2017-11-17T01:55:05.199Z,102767.47
2017-11-17T01:57:33.562Z,102765.88
2017-11-17T02:00:01.879Z,102768.83
2017-11-17T02:02:30.943Z,102768.61
2017-11-17T02:04:59.257Z,102762.55
2017-11-17T02:07:27.574Z,102762.96
2017-11-17T02:09:55.870Z,102772.77
2017-11-17T02:12:24.196Z,102771.95
2017-11-17T02:14:52.511Z,102769.64
2017-11-17T02:17:20.848Z,102778.39
2017-11-17T02:19:49.936Z,102768.61
2017-11-17T02:22:18.260Z,102771.12
2017-11-17T02:24:47.345Z,102770.75
2017-11-17T02:27:16.410Z,102772.72
2017-11-17T02:29:44.707Z,102769.91
2017-11-17T02:32:13.080Z,102769.80
2017-11-17T02:34:41.456Z,102772.09
2017-11-17T02:37:09.761Z,102770.20
2017-11-17T02:39:38.063Z,102766.09
2017-11-17T02:42:07.132Z,102767.41
2017-11-17T02:44:36.231Z,102770.98
2017-11-17T02:47:05.308Z,102770.20
2017-11-17T02:49:33.606Z,102770.20
2017-11-17T02:52:02.672Z,102775.94
2017-11-17T02:54:30.977Z,102774.98
2017-11-17T02:56:59.362Z,102775.82
2017-11-17T02:59:27.756Z,102781.40
2017-11-17T03:01:56.053Z,102776.58
2017-11-17T03:04:24.362Z,102780.76
2017-11-17T03:06:52.762Z,102775.31
2017-11-17T03:09:21.067Z,102782.74
2017-11-17T03:11:49.353Z,102777.12
2017-11-17T03:14:17.648Z,102782.16
2017-11-17T03:16:46.022Z,102784.94
2017-11-17T03:19:14.343Z,102783.31
2017-11-17T03:21:43.836Z,102789.33
2017-11-17T03:24:13.748Z,102783.16
2017-11-17T03:26:42.070Z,102787.58
2017-11-17T03:29:10.372Z,102782.91
2017-11-17T03:31:38.673Z,102784.23
2017-11-17T03:34:07.019Z,102783.16
2017-11-17T03:36:35.322Z,102790.16
2017-11-17T03:39:03.769Z,102797.23
2017-11-17T03:41:32.856Z,102801.45
2017-11-17T03:44:01.932Z,102795.23
2017-11-17T03:46:30.244Z,102806.06
2017-11-17T03:48:59.409Z,102803.40
2017-11-17T03:51:28.533Z,102806.28
2017-11-17T03:53:57.601Z,102804.17
2017-11-17T03:56:25.928Z,102807.74
2017-11-17T03:58:55.006Z,102819.06
2017-11-17T04:01:23.311Z,102818.52
2017-11-17T04:03:52.408Z,102820.34
2017-11-17T04:06:20.736Z,102816.83
2017-11-17T04:08:49.136Z,102817.45
2017-11-17T04:11:17.435Z,102820.44
2017-11-17T04:13:45.793Z,102821.16
2017-11-17T04:16:14.203Z,102815.26
2017-11-17T04:18:42.517Z,102819.31
2017-11-17T04:21:10.838Z,102819.16
2017-11-17T04:23:39.159Z,102820.19
2017-11-17T04:26:08.242Z,102818.86
2017-11-17T04:28:38.138Z,102822.23
2017-11-17T04:31:06.533Z,102819.90
2017-11-17T04:33:34.821Z,102823.98
2017-11-17T04:36:03.923Z,102825.96
2017-11-17T04:38:32.407Z,102827.30
2017-11-17T04:41:00.793Z,102835.81
2017-11-17T04:43:29.253Z,102832.73
2017-11-17T04:45:57.572Z,102832.45
2017-11-17T04:48:25.872Z,102832.22
2017-11-17T04:50:54.190Z,102836.53
2017-11-17T04:53:22.493Z,102833.32
2017-11-17T04:55:50.807Z,102841.13
2017-11-17T04:58:19.890Z,102841.64
2017-11-17T05:00:48.217Z,102844.10
2017-11-17T05:03:16.519Z,102848.77
2017-11-17T05:05:44.839Z,102849.14
2017-11-17T05:08:13.158Z,102846.32
2017-11-17T05:10:41.459Z,102851.92
2017-11-17T05:13:09.773Z,102854.89
2017-11-17T05:15:38.841Z,102855.86
2017-11-17T05:18:07.183Z,102861.72
2017-11-17T05:20:36.249Z,102870.53
2017-11-17T05:23:05.353Z,102867.95
2017-11-17T05:25:33.659Z,102861.59
2017-11-17T05:28:02.740Z,102866.30
2017-11-17T05:30:31.062Z,102858.27
2017-11-17T05:32:59.392Z,102869.19
2017-11-17T05:35:27.764Z,102865.62
2017-11-17T05:37:56.080Z,102862.97
2017-11-17T05:40:25.148Z,102864.66
2017-11-17T05:42:54.256Z,102855.91
2017-11-17T05:45:22.603Z,102865.62
2017-11-17T05:47:50.900Z,102862.00
2017-11-17T05:50:19.275Z,102861.84
2017-11-17T05:52:47.689Z,102862.27
2017-11-17T05:55:17.524Z,102865.16
2017-11-17T05:57:46.596Z,102864.77
2017-11-17T06:00:14.888Z,102874.30
2017-11-17T06:02:44.827Z,102878.42
2017-11-17T06:05:13.993Z,102877.75
2017-11-17T06:07:42.382Z,102881.22
2017-11-17T06:10:10.765Z,102877.79
2017-11-17T06:12:39.102Z,102879.58
2017-11-17T06:15:07.414Z,102880.94
2017-11-17T06:17:35.718Z,102880.98
2017-11-17T06:20:05.569Z,102882.12
2017-11-17T06:22:33.880Z,102881.11
2017-11-17T06:25:02.194Z,102875.20
2017-11-17T06:27:30.501Z,102881.63
2017-11-17T06:29:59.640Z,102886.77
2017-11-17T06:32:27.960Z,102874.39
2017-11-17T06:34:57.055Z,102883.45
2017-11-17T06:37:25.364Z,102891.69
2017-11-17T06:39:54.431Z,102887.30
2017-11-17T06:42:22.814Z,102886.45
2017-11-17T06:44:51.203Z,102892.48
2017-11-17T06:47:21.025Z,102897.08
2017-11-17T06:49:49.327Z,102898.17
2017-11-17T06:52:18.402Z,102897.94
2017-11-17T06:54:46.703Z,102901.42
2017-11-17T06:57:15.765Z,102907.90
2017-11-17T06:59:44.900Z,102909.35
2017-11-17T07:02:13.980Z,102909.05
2017-11-17T07:04:42.316Z,102907.55
2017-11-17T07:07:10.613Z,102910.01
2017-11-17T07:09:39.023Z,102912.85
2017-11-17T07:12:07.349Z,102918.29
2017-11-17T07:14:35.660Z,102926.38
2017-11-17T07:17:03.978Z,102925.59
2017-11-17T07:19:32.285Z,102921.73
2017-11-17T07:22:01.363Z,102925.00
2017-11-17T07:24:29.711Z,102926.94
2017-11-17T07:26:58.056Z,102933.64
2017-11-17T07:29:26.362Z,102933.16
2017-11-17T07:31:54.672Z,102932.19
2017-11-17T07:34:22.977Z,102937.86
2017-11-17T07:39:25.848Z,102937.55
2017-11-17T07:41:54.143Z,102939.30
2017-11-17T07:44:22.527Z,102940.50
2017-11-17T07:46:51.015Z,102936.39
2017-11-17T07:49:19.391Z,102939.23
2017-11-17T07:51:48.482Z,102940.04
2017-11-17T07:54:16.903Z,102933.63
2017-11-17T07:56:45.985Z,102932.12
2017-11-17T07:59:15.889Z,102939.78
2017-11-17T08:01:44.204Z,102933.94
2017-11-17T08:04:13.266Z,102934.76
2017-11-17T08:06:41.565Z,102938.02
2017-11-17T08:09:10.741Z,102938.44
2017-11-17T08:11:39.061Z,102946.36
2017-11-17T08:14:08.201Z,102944.56
2017-11-17T08:16:36.506Z,102944.91
2017-11-17T08:19:04.829Z,102944.27
2017-11-17T08:21:34.013Z,102943.67
2017-11-17T08:24:02.338Z,102949.70
2017-11-17T08:26:30.652Z,102944.48
2017-11-17T08:28:58.959Z,102948.30
2017-11-17T08:31:27.278Z,102948.14
2017-11-17T08:33:55.572Z,102945.16
2017-11-17T08:36:23.888Z,102947.45
2017-11-17T08:38:53.714Z,102947.45
2017-11-17T08:41:22.028Z,102941.16
2017-11-17T08:43:51.099Z,102946.77
2017-11-17T08:46:20.206Z,102945.11
2017-11-17T08:48:48.518Z,102937.05
2017-11-17T08:51:16.834Z,102946.53
2017-11-17T08:53:45.154Z,102945.00
2017-11-17T08:56:13.469Z,102943.94
2017-11-17T08:58:41.791Z,102944.47
2017-11-17T09:01:10.295Z,102946.36
2017-11-17T09:03:39.418Z,102949.52
2017-11-17T09:06:08.497Z,102945.63
2017-11-17T09:08:36.825Z,102947.09
2017-11-17T09:11:05.681Z,102938.97
2017-11-17T09:13:34.367Z,102943.03
2017-11-17T09:16:02.670Z,102942.23
2017-11-17T09:18:31.740Z,102941.90
2017-11-17T09:21:00.854Z,102947.21
2017-11-17T09:23:29.152Z,102953.81
2017-11-17T09:25:58.238Z,102953.72
2017-11-17T09:28:27.311Z,102954.28
2017-11-17T09:30:55.648Z,102954.36
2017-11-17T09:33:24.142Z,102957.08
2017-11-17T09:35:52.488Z,102960.50
2017-11-17T09:38:21.577Z,102959.70
2017-11-17T09:40:49.934Z,102960.77
2017-11-17T09:43:18.246Z,102960.62
2017-11-17T09:45:46.597Z,102952.83
2017-11-17T09:48:14.993Z,102953.45
2017-11-17T09:50:43.369Z,102956.41
2017-11-17T09:53:11.768Z,102958.64
2017-11-17T09:55:40.081Z,102950.59
2017-11-17T09:58:08.407Z,102955.02
2017-11-17T10:00:36.719Z,102954.00
2017-11-17T10:03:05.028Z,102956.86
2017-11-17T10:05:33.352Z,102949.98
2017-11-17T10:08:02.073Z,102949.83
2017-11-17T10:10:30.471Z,102951.01
2017-11-17T10:12:59.553Z,102953.09
2017-11-17T10:15:28.093Z,102947.50
2017-11-17T10:17:56.394Z,102944.80
2017-11-17T10:20:24.753Z,102946.39
2017-11-17T10:22:53.066Z,102944.70
2017-11-17T10:25:22.141Z,102941.94
2017-11-17T10:27:50.445Z,102938.47
2017-11-17T10:30:18.868Z,102938.06
2017-11-17T10:32:48.045Z,102937.23
2017-11-17T10:35:16.377Z,102935.52
2017-11-17T10:37:44.689Z,102938.39
2017-11-17T10:40:12.981Z,102930.61
2017-11-17T10:42:41.293Z,102922.94
2017-11-17T10:45:10.399Z,102926.50
2017-11-17T10:47:39.478Z,102921.08
2017-11-17T10:50:07.808Z,102923.88
2017-11-17T10:52:36.115Z,102923.30
2017-11-17T10:55:04.443Z,102919.13
2017-11-17T10:57:33.529Z,102913.63
2017-11-17T11:00:02.636Z,102911.98
2017-11-17T11:02:31.724Z,102918.87
2017-11-17T11:05:00.806Z,102911.75
2017-11-17T11:07:30.661Z,102909.57
2017-11-17T11:09:59.824Z,102905.55
2017-11-17T11:12:28.155Z,102909.85
2017-11-17T11:14:56.546Z,102908.33
2017-11-17T11:17:24.848Z,102895.83
2017-11-17T11:19:53.197Z,102894.63
2017-11-17T11:22:21.506Z,102892.34
2017-11-17T11:24:49.814Z,102889.28
2017-11-17T11:27:18.198Z,102893.32
2017-11-17T11:29:46.522Z,102892.23
2017-11-17T11:32:14.836Z,102886.28
2017-11-17T11:34:43.174Z,102892.40
2017-11-17T11:37:12.338Z,102887.44
2017-11-17T11:39:40.661Z,102884.34
2017-11-17T11:42:09.750Z,102884.07
2017-11-17T11:44:38.859Z,102888.35
2017-11-17T11:47:07.181Z,102902.75
2017-11-17T11:49:35.584Z,102889.77
2017-11-17T11:52:03.960Z,102894.89
2017-11-17T11:54:32.271Z,102891.62
2017-11-17T11:57:00.587Z,102897.06
2017-11-17T11:59:28.916Z,102906.14
2017-11-17T12:01:57.230Z,102897.16
2017-11-17T12:04:26.303Z,102898.77
2017-11-17T12:06:54.606Z,102898.62
2017-11-17T12:09:23.707Z,102902.47
2017-11-17T12:11:52.104Z,102903.64
2017-11-17T12:14:21.260Z,102907.75
2017-11-17T12:16:49.601Z,102909.25
2017-11-17T12:19:17.924Z,102904.64
2017-11-17T12:21:46.246Z,102901.95
2017-11-17T12:24:15.325Z,102900.94
2017-11-17T12:26:44.412Z,102898.26
2017-11-17T12:29:12.894Z,102904.80
2017-11-17T12:31:41.208Z,102897.95
2017-11-17T12:34:10.292Z,102896.69
2017-11-17T12:36:38.650Z,102895.80
2017-11-17T12:39:07.036Z,102894.56
2017-11-17T12:41:35.336Z,102892.15
2017-11-17T12:44:03.640Z,102892.45
2017-11-17T12:46:32.717Z,102888.41
2017-11-17T12:49:01.060Z,102886.48
2017-11-17T12:51:29.372Z,102887.26
2017-11-17T12:53:57.682Z,102887.59
2017-11-17T12:56:26.774Z,102887.44
2017-11-17T12:58:55.944Z,102885.36
2017-11-17T13:01:24.277Z,102882.02
2017-11-17T13:03:52.597Z,102873.66
2017-11-17T13:06:21.491Z,102869.31
2017-11-17T13:08:49.807Z,102876.34
2017-11-17T13:11:18.865Z,102871.14
2017-11-17T13:13:47.163Z,102873.64
2017-11-17T13:16:15.465Z,102875.66
2017-11-17T13:18:43.806Z,102874.84
2017-11-17T13:21:12.127Z,102873.56
2017-11-17T13:23:40.439Z,102879.98
2017-11-17T13:26:08.758Z,102876.02
2017-11-17T13:28:37.196Z,102872.30
2017-11-17T13:31:06.291Z,102875.74
2017-11-17T13:33:35.393Z,102866.45
2017-11-17T13:36:04.516Z,102859.68
2017-11-17T13:38:32.853Z,102854.34
2017-11-17T13:41:01.171Z,102856.54
2017-11-17T13:43:29.479Z,102858.72
2017-11-17T13:45:57.845Z,102851.77
2017-11-17T13:48:26.269Z,102853.60
2017-11-17T13:50:54.650Z,102855.19
2017-11-17T13:53:23.019Z,102846.37
2017-11-17T13:55:51.331Z,102845.53
2017-11-17T13:58:19.675Z,102840.50
2017-11-17T14:00:48.069Z,102833.47
2017-11-17T14:03:16.494Z,102823.70
2017-11-17T14:05:45.576Z,102820.59
2017-11-17T14:08:13.904Z,102816.63
2017-11-17T14:10:42.249Z,102806.44
2017-11-17T14:13:10.564Z,102796.89
2017-11-17T14:15:38.885Z,102793.08
2017-11-17T14:18:07.335Z,102789.48
2017-11-17T14:20:35.638Z,102779.96
2017-11-17T14:23:03.941Z,102771.81
2017-11-17T14:25:32.252Z,102777.78
2017-11-17T14:28:01.346Z,102777.52
2017-11-17T14:30:30.409Z,102779.28
2017-11-17T14:32:58.749Z,102782.28
2017-11-17T14:35:27.070Z,102784.03
2017-11-17T14:37:55.385Z,102785.50
2017-11-17T14:40:24.465Z,102788.18
2017-11-17T14:42:52.766Z,102785.98
2017-11-17T14:45:21.871Z,102792.45
2017-11-17T14:47:50.960Z,102793.09
2017-11-17T14:50:19.285Z,102793.41
2017-11-17T14:52:47.701Z,102787.70
2017-11-17T14:55:16.017Z,102795.28
2017-11-17T14:57:45.101Z,102796.06
2017-11-17T15:00:13.418Z,102798.91
2017-11-17T15:02:41.755Z,102805.35
2017-11-17T15:05:10.079Z,102802.76
2017-11-17T15:07:39.212Z,102808.52
2017-11-17T15:10:07.537Z,102813.42
2017-11-17T15:12:35.873Z,102819.30
2017-11-17T15:15:04.189Z,102827.28
2017-11-17T15:17:32.688Z,102819.94
2017-11-17T15:20:01.027Z,102818.70
2017-11-17T15:22:29.343Z,102819.99
2017-11-17T15:24:57.858Z,102813.64
2017-11-17T15:27:26.943Z,102815.91
2017-11-17T15:29:56.183Z,102809.67
2017-11-17T15:32:24.495Z,102813.42
2017-11-17T15:34:52.804Z,102809.78
2017-11-17T15:37:21.199Z,102816.82
2017-11-17T15:39:50.278Z,102815.02
2017-11-17T15:42:18.623Z,102815.86
2017-11-17T15:44:46.933Z,102814.89
2017-11-17T15:47:15.248Z,102811.18
2017-11-17T15:49:44.403Z,102805.75
2017-11-17T15:52:12.799Z,102800.50
2017-11-17T15:54:41.330Z,102804.87
2017-11-17T15:57:09.827Z,102807.17
2017-11-17T15:59:38.137Z,102803.88
2017-11-17T16:02:06.514Z,102804.02
2017-11-17T16:04:34.834Z,102805.58
2017-11-17T16:07:03.275Z,102802.33
2017-11-17T16:09:31.584Z,102796.31
2017-11-17T16:12:00.675Z,102793.77
2017-11-17T16:14:28.999Z,102795.87
2017-11-17T16:16:58.087Z,102794.91
2017-11-17T16:19:27.285Z,102795.44
2017-11-17T16:21:55.592Z,102797.06
2017-11-17T16:24:23.901Z,102795.17
2017-11-17T16:26:52.187Z,102788.73
2017-11-17T16:29:20.522Z,102791.74
2017-11-17T16:31:49.613Z,102792.48
2017-11-17T16:34:18.707Z,102800.06
2017-11-17T16:36:47.062Z,102791.22
2017-11-17T16:39:15.390Z,102785.54
2017-11-17T16:41:44.614Z,102794.25
2017-11-17T16:44:12.937Z,102791.34
2017-11-17T16:46:41.246Z,102798.64
2017-11-17T16:49:10.426Z,102796.09
2017-11-17T16:51:39.501Z,102800.23
2017-11-17T16:54:07.899Z,102799.61
2017-11-17T16:56:36.198Z,102790.59
2017-11-17T16:59:05.256Z,102788.00
2017-11-17T17:01:33.716Z,102781.13
2017-11-17T17:04:02.792Z,102785.34
2017-11-17T17:06:31.966Z,102781.70
2017-11-17T17:09:00.429Z,102772.19
2017-11-17T17:11:28.738Z,102779.63
2017-11-17T17:13:57.060Z,102783.38
2017-11-17T17:16:25.375Z,102776.86
2017-11-17T17:21:22.123Z,102772.41
2017-11-17T17:23:50.428Z,102765.01
2017-11-17T17:26:18.733Z,102759.75
2017-11-17T17:28:48.527Z,102757.65
2017-11-17T17:31:16.836Z,102752.04
2017-11-17T17:33:45.258Z,102757.58
2017-11-17T17:36:13.607Z,102765.16
2017-11-17T17:38:41.885Z,102766.77
2017-11-17T17:41:10.238Z,102764.66
2017-11-17T17:43:38.550Z,102761.67
2017-11-17T17:46:07.618Z,102759.92
2017-11-17T17:48:35.935Z,102752.94
2017-11-17T17:51:04.235Z,102760.51
2017-11-17T17:53:33.311Z,102759.95
2017-11-17T17:56:01.735Z,102777.49
2017-11-17T17:58:30.038Z,102771.11
2017-11-17T18:00:58.386Z,102772.86
2017-11-17T18:03:26.727Z,102768.80
2017-11-17T18:05:55.252Z,102774.27
2017-11-17T18:08:24.402Z,102767.05
2017-11-17T18:10:52.697Z,102763.90
2017-11-17T18:13:21.009Z,102766.07
2017-11-17T18:15:50.077Z,102758.50
2017-11-17T18:18:18.480Z,102755.35
2017-11-17T18:20:47.553Z,102748.27
2017-11-17T18:23:15.867Z,102744.28
2017-11-17T18:25:44.998Z,102747.50
2017-11-17T18:28:14.303Z,102740.35
2017-11-17T18:30:42.632Z,102742.95
2017-11-17T18:33:11.782Z,102737.48
2017-11-17T18:35:41.041Z,102739.30
2017-11-17T18:38:09.412Z,102736.36
2017-11-17T18:40:37.758Z,102735.09
2017-11-17T18:43:06.044Z,102738.32
2017-11-17T18:45:34.373Z,102736.98
2017-11-17T18:48:02.661Z,102740.14
2017-11-17T18:50:30.965Z,102748.34
2017-11-17T18:52:59.333Z,102737.06
2017-11-17T18:55:27.611Z,102738.88
2017-11-17T18:57:56.682Z,102738.05
2017-11-17T19:00:25.027Z,102736.92
2017-11-17T19:02:54.076Z,102723.88
2017-11-17T19:05:22.394Z,102716.45
2017-11-17T19:07:50.792Z,102716.88
2017-11-17T19:10:19.112Z,102717.89
2017-11-17T19:12:47.465Z,102714.38
2017-11-17T19:15:15.751Z,102712.21
2017-11-17T19:17:44.058Z,102713.72
2017-11-17T19:20:12.482Z,102707.20
2017-11-17T19:22:41.558Z,102702.66
2017-11-17T19:25:09.864Z,102708.26
2017-11-17T19:27:39.100Z,102700.58
2017-11-17T19:30:07.448Z,102700.79
2017-11-17T19:32:36.524Z,102691.86
2017-11-17T19:35:05.754Z,102696.48
2017-11-17T19:37:34.049Z,102687.52
2017-11-17T19:40:02.346Z,102694.45
2017-11-17T19:42:30.735Z,102693.55
2017-11-17T19:44:59.038Z,102684.44
2017-11-17T19:47:28.869Z,102685.03
2017-11-17T19:49:57.183Z,102682.65
2017-11-17T19:52:25.499Z,102682.64
2017-11-17T19:54:53.813Z,102684.14
2017-11-17T19:57:22.120Z,102681.97
2017-11-17T19:59:50.431Z,102680.63
2017-11-17T20:02:18.884Z,102679.65
2017-11-17T20:04:47.960Z,102683.36
2017-11-17T20:07:16.271Z,102678.47
2017-11-17T20:09:45.083Z,102677.95
2017-11-17T20:12:13.401Z,102675.70
2017-11-17T20:14:41.705Z,102678.63
2017-11-17T20:17:10.776Z,102679.19
2017-11-17T20:19:39.095Z,102682.69
2017-11-17T20:22:08.260Z,102683.87
2017-11-17T20:24:36.569Z,102683.17
2017-11-17T20:27:05.644Z,102685.20
2017-11-17T20:29:34.714Z,102680.30
2017-11-17T20:32:03.020Z,102682.66
2017-11-17T20:34:31.346Z,102667.31
2017-11-17T20:37:00.443Z,102659.67
2017-11-17T20:39:29.599Z,102663.52
2017-11-17T20:41:57.897Z,102666.53
2017-11-17T20:44:27.136Z,102664.92
2017-11-17T20:46:55.468Z,102664.43
2017-11-17T20:49:23.780Z,102664.22
2017-11-17T20:51:53.695Z,102662.67
2017-11-17T20:54:22.868Z,102661.17
2017-11-17T20:56:51.352Z,102653.95
2017-11-17T20:59:19.664Z,102655.91
2017-11-17T21:01:48.736Z,102657.73
2017-11-17T21:04:17.048Z,102655.98
2017-11-17T21:06:46.109Z,102652.05
2017-11-17T21:09:14.463Z,102653.80
2017-11-17T21:11:42.779Z,102645.25
2017-11-17T21:14:11.094Z,102635.65
2017-11-17T21:16:40.163Z,102631.30
2017-11-17T21:19:08.476Z,102632.07
2017-11-17T21:21:37.538Z,102626.60
2017-11-17T21:24:05.835Z,102630.03
2017-11-17T21:26:34.196Z,102627.30
2017-11-17T21:29:02.510Z,102619.73
2017-11-17T21:31:30.824Z,102616.39
2017-11-17T21:33:59.211Z,102614.08
2017-11-17T21:36:27.631Z,102614.77
2017-11-17T21:38:55.929Z,102613.86
2017-11-17T21:41:24.240Z,102616.87
2017-11-17T21:43:53.922Z,102611.33
2017-11-17T21:46:22.255Z,102610.98
2017-11-17T21:48:50.703Z,102611.48
2017-11-17T21:51:19.760Z,102613.30
2017-11-17T21:53:48.081Z,102611.89
2017-11-17T21:56:16.440Z,102609.58
2017-11-17T21:58:44.816Z,102607.55
2017-11-17T22:01:13.147Z,102604.67
2017-11-17T22:03:41.455Z,102606.08
2017-11-17T22:06:09.780Z,102607.06
2017-11-17T22:08:38.169Z,102599.34
2017-11-17T22:11:06.539Z,102592.41
2017-11-17T22:13:34.873Z,102591.35
2017-11-17T22:16:03.180Z,102590.22
2017-11-17T22:18:31.482Z,102585.31
2017-11-17T22:20:59.803Z,102584.62
2017-11-17T22:23:28.905Z,102586.59
2017-11-17T22:25:57.306Z,102587.01
2017-11-17T22:28:25.735Z,102576.70
2017-11-17T22:30:54.068Z,102586.22
2017-11-17T22:33:22.371Z,102581.59
2017-11-17T22:35:50.717Z,102585.83
2017-11-17T22:38:19.121Z,102575.70
2017-11-17T22:40:47.432Z,102581.17
2017-11-17T22:43:15.753Z,102580.84
2017-11-17T22:45:44.282Z,102586.10
2017-11-17T22:48:12.601Z,102578.53
2017-11-17T22:50:40.971Z,102583.64
2017-11-17T22:53:09.309Z,102570.17
2017-11-17T22:55:37.626Z,102568.63
2017-11-17T22:58:05.919Z,102570.64
2017-11-17T23:00:34.237Z,102567.16
2017-11-17T23:03:02.586Z,102561.83
2017-11-17T23:05:30.888Z,102562.88
2017-11-17T23:08:00.128Z,102565.39
2017-11-17T23:10:28.514Z,102557.47
2017-11-17T23:12:56.818Z,102556.14
2017-11-17T23:15:25.341Z,102560.25
2017-11-17T23:17:54.407Z,102553.94
2017-11-17T23:20:22.710Z,102552.31
2017-11-17T23:22:51.016Z,102557.39
2017-11-17T23:25:20.115Z,102553.73
2017-11-17T23:27:49.191Z,102551.84
2017-11-17T23:30:19.053Z,102547.27
2017-11-17T23:32:47.375Z,102541.38
2017-11-17T23:35:15.689Z,102534.98
2017-11-17T23:37:44.789Z,102530.68
2017-11-17T23:40:13.979Z,102529.00
2017-11-17T23:42:42.314Z,102522.76
2017-11-17T23:45:10.786Z,102524.59
2017-11-17T23:47:39.108Z,102523.10
2017-11-17T23:50:08.929Z,102517.59
2017-11-17T23:52:37.298Z,102510.53
2017-11-17T23:55:05.593Z,102508.18
2017-11-17T23:57:34.047Z,102503.20
